Time;durP1;ratioP1;P1;durP2;ratioP2;P2;SDS_P1;SDS_P2;PMS_P1;PMS_P2;Temp;Humidity;BMP_temperature;BMP_pressure;BME280_temperature;BME280_humidity;BME280_pressure;Samples;Min_cycle;Max_cycle;Signal;HPM_P1;HPM_P2
2022/01/15 00:01:34;;;;;;;6.50;5.80;;;17.90;54.90;;;;;;5051760;28;20277;-60
2022/01/15 00:04:00;;;;;;;5.75;5.20;;;17.80;54.80;;;;;;5050979;28;20586;-60
2022/01/15 00:06:25;;;;;;;6.07;5.47;;;17.80;54.80;;;;;;5051361;28;20224;-60
2022/01/15 00:08:51;;;;;;;6.03;5.43;;;17.80;54.80;;;;;;5051636;28;20175;-60
2022/01/15 00:11:16;;;;;;;6.50;5.75;;;17.80;54.80;;;;;;5050845;28;20239;-62
2022/01/15 00:13:44;;;;;;;6.40;5.00;;;17.80;54.80;;;;;;5051085;28;20182;-62
2022/01/15 00:16:13;;;;;;;5.45;4.78;;;17.80;54.80;;;;;;5051628;28;20175;-62
2022/01/15 00:18:58;;;;;;;6.20;5.60;;;17.80;54.80;;;;;;5050350;28;20579;-61
2022/01/15 00:21:23;;;;;;;6.25;5.65;;;17.70;54.80;;;;;;5050510;28;20175;-61
2022/01/15 00:23:49;;;;;;;5.80;5.10;;;17.70;54.80;;;;;;5051217;28;20186;-60
2022/01/15 00:26:15;;;;;;;5.40;4.90;;;17.70;54.70;;;;;;5050895;28;20232;-60
2022/01/15 00:28:40;;;;;;;5.78;4.82;;;17.70;54.80;;;;;;5051120;28;20182;-60
2022/01/15 00:31:06;;;;;;;5.50;5.00;;;17.70;54.80;;;;;;5051397;28;20634;-60
2022/01/15 00:33:31;;;;;;;5.43;4.93;;;17.60;54.70;;;;;;5050483;28;20178;-60
2022/01/15 00:35:57;;;;;;;5.53;5.03;;;17.60;54.80;;;;;;5051366;28;20178;-59
2022/01/15 00:38:23;;;;;;;6.13;5.45;;;17.60;54.80;;;;;;5050768;28;20182;-60
2022/01/15 00:40:48;;;;;;;6.03;5.43;;;17.60;54.70;;;;;;5050580;28;20171;-60
2022/01/15 00:43:14;;;;;;;5.25;4.75;;;17.60;54.70;;;;;;5051113;28;20194;-59
2022/01/15 00:45:39;;;;;;;5.68;5.10;;;17.60;54.70;;;;;;5051028;28;20175;-59
2022/01/15 00:48:05;;;;;;;5.95;5.00;;;17.60;54.70;;;;;;5050462;28;20272;-59
2022/01/15 00:50:31;;;;;;;5.40;4.90;;;17.60;54.70;;;;;;5051073;28;20197;-60
2022/01/15 00:52:56;;;;;;;5.85;5.10;;;17.60;54.70;;;;;;5051284;28;20278;-60
2022/01/15 00:55:22;;;;;;;7.75;5.57;;;17.60;54.70;;;;;;5050799;28;20524;-60
2022/01/15 00:57:47;;;;;;;5.47;4.80;;;17.60;54.60;;;;;;5051560;28;20262;-60
2022/01/15 01:00:17;;;;;;;6.05;5.45;;;17.50;54.70;;;;;;5050634;28;20171;-60
2022/01/15 01:02:43;;;;;;;5.55;5.03;;;17.50;54.70;;;;;;5050919;28;20683;-58
2022/01/15 01:05:09;;;;;;;5.65;4.80;;;17.50;54.60;;;;;;5051276;28;20171;-59
2022/01/15 01:07:35;;;;;;;5.20;4.70;;;17.50;54.60;;;;;;5050145;28;20183;-59
2022/01/15 01:12:56;;;;;;;5.20;4.72;;;17.50;54.70;;;;;;5051172;28;20268;-61
2022/01/15 01:23:20;;;;;;;5.88;5.18;;;17.40;54.60;;;;;;5050309;28;20224;-59
2022/01/15 01:25:49;;;;;;;5.30;4.80;;;17.40;54.60;;;;;;5051148;28;20180;-59
2022/01/15 01:28:24;;;;;;;5.95;4.75;;;17.40;54.60;;;;;;5050297;28;20182;-59
2022/01/15 01:30:59;;;;;;;5.93;4.88;;;17.40;54.60;;;;;;5051217;28;20278;-59
2022/01/15 01:36:06;;;;;;;5.20;4.68;;;17.40;54.60;;;;;;5054257;28;20225;-59
2022/01/15 01:38:44;;;;;;;5.18;4.68;;;17.40;54.60;;;;;;5054406;28;20617;-59
2022/01/15 01:41:16;;;;;;;5.57;4.53;;;17.40;54.60;;;;;;5054940;28;20186;-59
2022/01/15 01:43:49;;;;;;;4.85;4.45;;;17.40;54.60;;;;;;5053866;28;20175;-60
2022/01/15 01:46:52;;;;;;;5.32;4.68;;;17.40;54.50;;;;;;5054645;28;20179;-60
2022/01/15 01:49:10;;;;;;;4.82;4.38;;;17.30;54.50;;;;;;5052897;28;20574;-60
2022/01/15 01:51:39;;;;;;;5.13;4.63;;;17.30;54.50;;;;;;5053557;28;20215;-60
2022/01/15 01:54:08;;;;;;;5.72;5.15;;;17.30;54.50;;;;;;5054603;28;20261;-60
2022/01/15 01:56:33;;;;;;;5.25;4.75;;;17.30;54.50;;;;;;5053432;28;20551;-60
2022/01/15 01:58:59;;;;;;;5.15;4.65;;;17.30;54.50;;;;;;5054412;28;20309;-59
2022/01/15 02:01:25;;;;;;;5.32;4.82;;;17.30;54.60;;;;;;5053934;28;20252;-59
2022/01/15 02:03:50;;;;;;;5.22;4.72;;;17.30;54.50;;;;;;5053604;28;20218;-59
2022/01/15 02:06:17;;;;;;;4.60;4.18;;;17.30;54.50;;;;;;5054465;28;20217;-59
2022/01/15 02:08:42;;;;;;;4.35;3.95;;;17.30;54.50;;;;;;5054056;28;20171;-59
2022/01/15 02:11:08;;;;;;;5.40;4.90;;;17.30;54.50;;;;;;5053648;28;20653;-61
2022/01/15 02:13:37;;;;;;;4.82;4.25;;;17.20;54.50;;;;;;5053777;28;20187;-61
2022/01/15 02:16:02;;;;;;;5.57;4.55;;;17.30;54.60;;;;;;5054196;28;20171;-62
2022/01/15 02:18:28;;;;;;;5.60;4.65;;;17.20;54.50;;;;;;5052928;28;20186;-60
2022/01/15 02:23:36;;;;;;;5.15;4.65;;;17.20;54.50;;;;;;5053943;28;20251;-60
2022/01/15 02:26:06;;;;;;;6.63;4.57;;;17.20;54.50;;;;;;5053231;28;20182;-60
2022/01/15 02:28:39;;;;;;;4.90;4.22;;;17.20;54.40;;;;;;5053438;28;20775;-59
2022/01/15 02:31:09;;;;;;;4.85;4.35;;;17.20;54.50;;;;;;5053649;28;20698;-60
2022/01/15 02:33:35;;;;;;;4.85;4.35;;;17.20;54.40;;;;;;5052995;28;20186;-60
2022/01/15 02:36:00;;;;;;;4.75;4.32;;;17.20;54.40;;;;;;5053922;28;20171;-59
2022/01/15 02:38:26;;;;;;;5.18;4.68;;;17.10;54.40;;;;;;5053482;28;20225;-59
2022/01/15 02:40:51;;;;;;;5.00;4.40;;;17.20;54.40;;;;;;5053067;28;20650;-63
2022/01/15 02:43:20;;;;;;;5.28;4.68;;;17.10;54.40;;;;;;5053718;28;20179;-60
2022/01/15 02:45:55;;;;;;;4.55;4.15;;;17.10;54.40;;;;;;5052178;28;20175;-61
2022/01/15 02:48:21;;;;;;;5.15;4.65;;;17.10;54.40;;;;;;5053207;28;20229;-60
2022/01/15 02:50:47;;;;;;;4.60;4.20;;;17.10;54.40;;;;;;5053722;28;20175;-60
2022/01/15 02:53:15;;;;;;;4.70;4.30;;;17.10;54.40;;;;;;5052839;28;20268;-59
2022/01/15 02:55:42;;;;;;;4.82;4.05;;;17.10;54.40;;;;;;5053046;28;20179;-60
2022/01/15 02:58:07;;;;;;;4.28;3.88;;;17.10;54.40;;;;;;5053312;28;20179;-62
2022/01/15 03:00:33;;;;;;;4.32;3.92;;;17.10;54.40;;;;;;5052519;28;20178;-60
2022/01/15 03:02:58;;;;;;;4.32;4.00;;;17.10;54.40;;;;;;5052168;28;20176;-60
2022/01/15 03:05:24;;;;;;;3.78;3.42;;;17.10;54.40;;;;;;5052850;28;20180;-60
2022/01/15 03:07:49;;;;;;;4.18;3.78;;;17.00;54.30;;;;;;5052203;28;20630;-60
2022/01/15 03:10:15;;;;;;;4.28;3.92;;;17.00;54.30;;;;;;5053230;28;20186;-62
2022/01/15 03:12:41;;;;;;;4.30;3.90;;;17.00;54.30;;;;;;5052715;28;20211;-61
2022/01/15 03:15:08;;;;;;;4.72;3.95;;;17.10;54.40;;;;;;5052704;28;20603;-62
2022/01/15 03:17:33;;;;;;;6.50;4.40;;;17.00;54.30;;;;;;5053016;28;20179;-61
2022/01/15 03:19:59;;;;;;;3.78;3.42;;;17.00;54.30;;;;;;5053007;28;20190;-61
2022/01/15 03:22:25;;;;;;;4.50;4.10;;;17.00;54.30;;;;;;5052109;28;20517;-61
2022/01/15 03:24:50;;;;;;;4.28;3.88;;;17.00;54.30;;;;;;5052923;28;20181;-60
2022/01/15 03:27:16;;;;;;;4.28;3.95;;;17.00;54.40;;;;;;5052645;28;20183;-60
2022/01/15 03:29:42;;;;;;;4.22;3.83;;;17.00;54.30;;;;;;5051671;28;20501;-60
2022/01/15 03:32:07;;;;;;;4.20;3.70;;;17.00;54.30;;;;;;5052495;28;20222;-60
2022/01/15 03:34:33;;;;;;;4.15;3.50;;;16.90;54.20;;;;;;5052320;28;20638;-60
2022/01/15 03:36:58;;;;;;;3.75;3.45;;;16.90;54.30;;;;;;5051989;28;20175;-60
2022/01/15 03:39:24;;;;;;;3.80;3.40;;;16.90;54.30;;;;;;5052147;28;20182;-60
2022/01/15 03:41:49;;;;;;;4.20;3.80;;;16.90;54.30;;;;;;5051649;28;20183;-60
2022/01/15 03:44:15;;;;;;;3.42;3.15;;;16.90;54.30;;;;;;5052900;28;20229;-61
2022/01/15 03:46:43;;;;;;;3.50;3.20;;;16.90;54.30;;;;;;5052114;28;20585;-60
2022/01/15 03:49:09;;;;;;;3.83;3.53;;;16.90;54.30;;;;;;5051498;28;20340;-61
2022/01/15 03:51:34;;;;;;;3.70;3.40;;;16.90;54.30;;;;;;5051904;28;20566;-61
2022/01/15 03:54:00;;;;;;;3.60;3.30;;;16.90;54.30;;;;;;5052101;28;20178;-62
2022/01/15 03:56:25;;;;;;;3.50;3.20;;;16.90;54.30;;;;;;5050850;28;20171;-60
2022/01/15 03:58:51;;;;;;;3.58;3.28;;;16.90;54.20;;;;;;5052422;28;20175;-60
2022/01/15 04:01:16;;;;;;;3.25;2.95;;;16.90;54.20;;;;;;5052340;28;20163;-61
2022/01/15 04:03:42;;;;;;;3.13;2.90;;;16.80;54.20;;;;;;5051295;28;20229;-60
2022/01/15 04:06:07;;;;;;;4.07;3.75;;;16.80;54.20;;;;;;5051966;28;20614;-60
2022/01/15 04:08:33;;;;;;;3.50;3.20;;;16.80;54.20;;;;;;5051656;28;20269;-60
2022/01/15 04:10:58;;;;;;;3.28;2.97;;;16.90;54.20;;;;;;5051434;28;20164;-61
2022/01/15 04:13:24;;;;;;;3.15;2.90;;;16.80;54.20;;;;;;5051866;28;20246;-62
2022/01/15 04:15:52;;;;;;;3.63;3.30;;;16.80;54.20;;;;;;5052023;28;20297;-62
2022/01/15 04:18:22;;;;;;;3.17;2.63;;;16.80;54.20;;;;;;5051451;28;20179;-62
2022/01/15 04:20:48;;;;;;;3.42;3.10;;;16.80;54.20;;;;;;5052231;28;20214;-61
2022/01/15 04:23:16;;;;;;;3.15;2.83;;;16.80;54.20;;;;;;5052050;28;20191;-60
2022/01/15 04:25:42;;;;;;;3.20;2.90;;;16.80;54.80;;;;;;5050983;28;20262;-60
2022/01/15 04:28:10;;;;;;;3.42;3.13;;;16.80;54.20;;;;;;5052009;28;20254;-60
2022/01/15 04:30:36;;;;;;;3.10;2.80;;;16.80;54.20;;;;;;5051543;28;20301;-60
2022/01/15 04:33:02;;;;;;;3.42;3.13;;;16.70;54.10;;;;;;5051036;28;20221;-60
2022/01/15 04:35:27;;;;;;;3.20;2.97;;;16.80;54.10;;;;;;5051371;28;20167;-61
2022/01/15 04:38:01;;;;;;;3.40;3.10;;;16.80;54.10;;;;;;5051610;28;20186;-60
2022/01/15 04:40:26;;;;;;;3.08;2.88;;;16.70;54.10;;;;;;5050896;28;20634;-60
2022/01/15 04:42:51;;;;;;;2.92;2.72;;;16.70;54.10;;;;;;5051884;28;20232;-61
2022/01/15 04:45:17;;;;;;;3.33;3.03;;;16.70;54.20;;;;;;5051153;28;20175;-60
2022/01/15 04:47:42;;;;;;;3.30;3.00;;;16.70;54.10;;;;;;5051262;28;20175;-61
2022/01/15 04:50:11;;;;;;;3.33;3.05;;;16.70;54.10;;;;;;5051672;28;20187;-62
2022/01/15 04:52:38;;;;;;;2.88;2.67;;;16.70;54.10;;;;;;5050126;28;20282;-61
2022/01/15 04:55:04;;;;;;;2.60;2.40;;;16.70;54.10;;;;;;5051735;28;20206;-61
2022/01/15 04:57:30;;;;;;;2.92;2.70;;;16.70;54.10;;;;;;5051204;28;20271;-62
2022/01/15 04:59:55;;;;;;;3.50;3.20;;;16.70;54.10;;;;;;5050663;28;20262;-60
2022/01/15 05:02:21;;;;;;;3.35;3.05;;;16.60;54.00;;;;;;5050980;28;20179;-61
2022/01/15 05:04:46;;;;;;;3.35;2.90;;;16.70;54.10;;;;;;5051203;28;20503;-60
2022/01/15 05:07:12;;;;;;;4.03;3.05;;;16.60;54.00;;;;;;5050452;28;20638;-60
2022/01/15 05:09:38;;;;;;;2.80;2.60;;;16.60;54.10;;;;;;5054487;28;20245;-61
2022/01/15 05:12:10;;;;;;;2.78;2.58;;;16.60;54.10;;;;;;5055143;28;20286;-62
2022/01/15 05:14:35;;;;;;;3.20;2.90;;;16.60;54.10;;;;;;5054354;28;20617;-62
2022/01/15 05:17:02;;;;;;;3.53;3.17;;;16.60;54.10;;;;;;5054883;28;20233;-61
2022/01/15 05:19:28;;;;;;;3.38;3.08;;;16.60;54.10;;;;;;5054849;28;20195;-61
2022/01/15 05:21:55;;;;;;;3.15;2.85;;;16.60;54.10;;;;;;5054200;28;20715;-61
2022/01/15 05:24:21;;;;;;;2.88;2.67;;;16.60;54.00;;;;;;5054902;28;20293;-60
2022/01/15 05:26:46;;;;;;;3.40;3.03;;;16.60;54.10;;;;;;5055266;28;20202;-60
2022/01/15 05:29:12;;;;;;;2.90;2.70;;;16.60;54.10;;;;;;5054076;28;20626;-60
2022/01/15 05:31:37;;;;;;;3.10;2.88;;;16.60;54.10;;;;;;5054650;28;20206;-60
2022/01/15 05:34:03;;;;;;;3.10;2.80;;;16.60;54.00;;;;;;5054700;28;20175;-59
2022/01/15 05:36:30;;;;;;;3.10;2.80;;;16.60;54.00;;;;;;5053625;28;20171;-60
2022/01/15 05:38:56;;;;;;;3.00;2.75;;;16.60;54.10;;;;;;5054688;28;20266;-59
2022/01/15 05:41:21;;;;;;;2.83;2.55;;;16.60;54.10;;;;;;5053945;28;20257;-60
2022/01/15 05:43:47;;;;;;;2.45;2.25;;;16.60;54.20;;;;;;5054693;28;20232;-59
2022/01/15 05:46:12;;;;;;;3.20;2.90;;;16.60;54.00;;;;;;5054608;28;20171;-61
2022/01/15 05:48:38;;;;;;;3.08;2.75;;;16.50;54.00;;;;;;5053398;28;20648;-60
2022/01/15 05:51:03;;;;;;;3.20;2.95;;;16.50;54.00;;;;;;5054417;28;20540;-60
2022/01/15 05:53:29;;;;;;;3.35;2.88;;;16.50;54.00;;;;;;5054035;28;20596;-60
2022/01/15 05:55:54;;;;;;;2.67;2.47;;;16.50;54.00;;;;;;5053821;28;20691;-61
2022/01/15 05:58:20;;;;;;;2.70;2.50;;;16.50;54.10;;;;;;5054137;28;20207;-60
2022/01/15 06:00:45;;;;;;;2.50;2.30;;;16.50;54.00;;;;;;5054369;28;20290;-60
2022/01/15 06:03:11;;;;;;;2.85;2.65;;;16.50;54.00;;;;;;5053590;28;20255;-60
2022/01/15 06:05:36;;;;;;;2.92;2.65;;;16.50;54.00;;;;;;5053711;28;20174;-60
2022/01/15 06:08:02;;;;;;;2.72;2.53;;;16.50;54.00;;;;;;5054369;28;20175;-60
2022/01/15 06:10:27;;;;;;;3.30;3.00;;;16.50;54.10;;;;;;5053147;28;20236;-60
2022/01/15 06:12:53;;;;;;;3.33;3.03;;;16.40;54.00;;;;;;5054141;28;20313;-62
2022/01/15 06:15:19;;;;;;;2.80;2.60;;;16.50;54.00;;;;;;5054123;28;20572;-61
2022/01/15 06:17:44;;;;;;;2.78;2.45;;;16.50;54.00;;;;;;5053164;28;20615;-60
2022/01/15 06:20:11;;;;;;;2.70;2.50;;;16.40;54.00;;;;;;5054110;28;20262;-60
2022/01/15 06:22:36;;;;;;;2.60;2.40;;;16.40;54.00;;;;;;5054047;28;20179;-60
2022/01/15 06:25:03;;;;;;;2.97;2.72;;;16.40;54.00;;;;;;5053436;28;20237;-60
2022/01/15 06:27:32;;;;;;;3.00;2.80;;;16.40;54.00;;;;;;5053915;28;20265;-60
2022/01/15 06:29:58;;;;;;;2.70;2.50;;;16.40;54.00;;;;;;5054156;28;20210;-60
2022/01/15 06:32:27;;;;;;;2.70;2.50;;;16.40;54.10;;;;;;5052779;28;20653;-60
2022/01/15 06:34:53;;;;;;;2.88;2.65;;;16.40;54.00;;;;;;5053774;28;20182;-60
2022/01/15 06:37:18;;;;;;;2.47;2.28;;;16.40;54.00;;;;;;5054060;28;20175;-60
2022/01/15 06:39:44;;;;;;;2.78;2.58;;;16.30;54.00;;;;;;5053136;28;20247;-60
2022/01/15 06:42:10;;;;;;;2.72;2.53;;;16.40;53.90;;;;;;5053776;28;20634;-60
2022/01/15 06:44:35;;;;;;;3.00;2.72;;;16.30;54.60;;;;;;5053596;28;20167;-60
2022/01/15 06:47:01;;;;;;;2.60;2.40;;;16.30;53.90;;;;;;5052935;28;20190;-60
2022/01/15 06:49:26;;;;;;;2.97;2.70;;;16.40;54.00;;;;;;5053221;28;20226;-60
2022/01/15 06:51:52;;;;;;;2.90;2.70;;;16.30;53.90;;;;;;5052864;28;20562;-60
2022/01/15 06:54:20;;;;;;;2.78;2.58;;;16.30;53.90;;;;;;5053785;28;20266;-60
2022/01/15 06:56:45;;;;;;;2.67;2.47;;;16.30;53.90;;;;;;5054016;28;20182;-60
2022/01/15 06:59:11;;;;;;;3.65;2.70;;;16.30;53.90;;;;;;5052915;28;20179;-62
2022/01/15 07:01:36;;;;;;;3.05;2.75;;;16.30;54.00;;;;;;5053214;28;20633;-59
2022/01/15 07:04:02;;;;;;;2.80;2.58;;;16.30;54.00;;;;;;5053445;28;20206;-63
2022/01/15 07:06:27;;;;;;;2.67;2.47;;;16.30;54.00;;;;;;5052600;28;20176;-60
2022/01/15 07:08:53;;;;;;;2.53;2.33;;;16.30;53.90;;;;;;5053547;28;20186;-60
2022/01/15 07:11:18;;;;;;;3.08;2.80;;;16.20;53.90;;;;;;5053074;28;20541;-61
2022/01/15 07:13:44;;;;;;;2.63;2.42;;;16.20;53.90;;;;;;5052598;28;20190;-61
2022/01/15 07:16:09;;;;;;;2.63;2.42;;;16.20;54.00;;;;;;5053358;28;20182;-61
2022/01/15 07:18:35;;;;;;;3.20;2.90;;;16.20;54.00;;;;;;5052894;28;20182;-60
2022/01/15 07:21:00;;;;;;;2.65;2.45;;;16.20;53.90;;;;;;5052772;28;20171;-60
2022/01/15 07:23:26;;;;;;;2.50;2.30;;;16.30;53.90;;;;;;5052835;28;20194;-60
2022/01/15 07:25:51;;;;;;;3.10;2.70;;;16.20;53.90;;;;;;5053194;28;20179;-60
2022/01/15 07:28:20;;;;;;;2.50;2.30;;;16.20;53.90;;;;;;5052511;28;20191;-60
2022/01/15 07:30:45;;;;;;;2.65;2.45;;;16.20;53.90;;;;;;5052395;28;20169;-61
2022/01/15 07:33:12;;;;;;;2.70;2.50;;;16.20;53.90;;;;;;5053081;28;20222;-60
2022/01/15 07:35:37;;;;;;;2.60;2.40;;;16.20;53.90;;;;;;5051916;28;20630;-60
2022/01/15 07:38:03;;;;;;;2.30;2.10;;;16.30;54.00;;;;;;5053059;28;20225;-61
2022/01/15 07:40:29;;;;;;;3.60;2.20;;;16.30;53.90;;;;;;5051707;28;20181;-60
2022/01/15 07:42:54;;;;;;;2.20;2.00;;;16.40;53.80;;;;;;5052127;28;20178;-60
2022/01/15 07:45:20;;;;;;;2.08;1.95;;;16.40;53.80;;;;;;5052522;28;20171;-60
2022/01/15 07:47:45;;;;;;;2.25;1.90;;;16.50;54.10;;;;;;5052434;28;20241;-58
2022/01/15 07:50:24;;;;;;;2.63;2.42;;;16.60;54.10;;;;;;5052198;28;20711;-61
2022/01/15 07:52:53;;;;;;;2.00;1.80;;;16.80;54.50;;;;;;5052860;28;20206;-60
2022/01/15 07:55:19;;;;;;;1.80;1.70;;;17.00;53.60;;;;;;5051872;28;20167;-61
2022/01/15 07:57:45;;;;;;;2.13;1.98;;;17.20;53.30;;;;;;5052572;28;20190;-60
2022/01/15 08:00:12;;;;;;;2.25;2.05;;;17.40;53.00;;;;;;5052440;28;20249;-61
2022/01/15 08:02:37;;;;;;;1.70;1.60;;;17.60;52.90;;;;;;5051312;28;20576;-60
2022/01/15 08:05:04;;;;;;;1.90;1.80;;;17.80;52.60;;;;;;5052285;28;20194;-66
2022/01/15 08:07:30;;;;;;;2.30;2.10;;;17.90;52.30;;;;;;5051870;28;20190;-66
2022/01/15 08:09:55;;;;;;;2.28;1.90;;;18.10;52.20;;;;;;5051440;28;20233;-62
2022/01/15 08:12:22;;;;;;;2.00;1.83;;;18.30;51.90;;;;;;5051898;28;20211;-61
2022/01/15 08:14:49;;;;;;;2.67;2.33;;;18.20;52.00;;;;;;5052131;28;20541;-63
2022/01/15 08:17:14;;;;;;;2.25;2.05;;;18.30;52.50;;;;;;5051427;28;20236;-62
2022/01/15 08:19:40;;;;;;;3.47;2.45;;;18.30;52.60;;;;;;5051733;28;20167;-66
2022/01/15 08:22:05;;;;;;;3.10;2.80;;;18.30;52.70;;;;;;5052069;28;20264;-66
2022/01/15 08:24:31;;;;;;;3.47;2.45;;;18.30;52.70;;;;;;5051047;28;20709;-65
2022/01/15 08:26:56;;;;;;;2.97;2.53;;;18.20;53.00;;;;;;5051832;28;20179;-64
2022/01/15 08:29:22;;;;;;;2.80;2.47;;;18.30;53.20;;;;;;5051603;28;20174;-64
2022/01/15 08:31:47;;;;;;;2.55;2.35;;;18.20;53.10;;;;;;5051085;28;20215;-65
2022/01/15 08:34:13;;;;;;;4.97;2.63;;;18.20;53.10;;;;;;5051809;28;20171;-65
2022/01/15 08:36:38;;;;;;;4.38;2.50;;;18.20;53.20;;;;;;5051585;28;20903;-64
2022/01/15 08:39:04;;;;;;;3.47;2.90;;;18.20;53.30;;;;;;5051190;28;20186;-64
2022/01/15 08:41:30;;;;;;;5.57;2.42;;;18.20;53.30;;;;;;5051384;28;20179;-64
2022/01/15 08:43:55;;;;;;;3.83;2.92;;;18.30;53.30;;;;;;5053754;28;20189;-64
2022/01/15 08:46:21;;;;;;;3.35;2.70;;;18.20;53.20;;;;;;5054321;28;20182;-64
2022/01/15 08:48:47;;;;;;;4.88;2.67;;;18.20;53.20;;;;;;5055441;28;20610;-63
2022/01/15 08:51:12;;;;;;;3.33;2.67;;;18.20;53.20;;;;;;5052421;28;20179;-64
2022/01/15 08:53:38;;;;;;;2.67;2.47;;;18.20;53.20;;;;;;5054466;28;20653;-65
2022/01/15 08:56:04;;;;;;;4.32;2.60;;;18.20;53.20;;;;;;5055144;28;20175;-64
2022/01/15 08:58:30;;;;;;;4.47;2.80;;;18.30;53.20;;;;;;5054563;28;20190;-67
2022/01/15 09:00:55;;;;;;;5.35;3.25;;;18.30;53.10;;;;;;5056022;28;20578;-65
2022/01/15 09:03:26;;;;;;;4.93;3.75;;;18.20;53.00;;;;;;5055498;28;20701;-65
2022/01/15 09:05:52;;;;;;;4.03;3.05;;;18.20;52.90;;;;;;5055141;28;20642;-65
2022/01/15 09:08:20;;;;;;;5.50;4.03;;;18.20;52.80;;;;;;5055623;28;20228;-64
2022/01/15 09:10:46;;;;;;;4.10;3.53;;;18.20;52.70;;;;;;5055282;28;20167;-64
2022/01/15 09:13:12;;;;;;;6.65;3.83;;;18.20;52.70;;;;;;5054952;28;20520;-65
2022/01/15 09:15:37;;;;;;;5.90;3.75;;;18.20;52.60;;;;;;5054478;28;20195;-64
2022/01/15 09:18:03;;;;;;;4.38;3.42;;;18.20;52.70;;;;;;5064153;28;20179;-63
2022/01/15 09:20:29;;;;;;;4.00;3.25;;;18.20;52.60;;;;;;5062008;28;20181;-64
2022/01/15 09:22:55;;;;;;;4.05;3.65;;;18.30;52.70;;;;;;5069311;28;20179;-63
2022/01/15 09:25:20;;;;;;;4.38;3.63;;;18.30;52.60;;;;;;5067442;28;20197;-63
2022/01/15 09:30:30;;;;;;;4.43;3.30;;;18.30;52.60;;;;;;5074887;28;20157;-63
2022/01/15 09:32:55;;;;;;;4.05;3.60;;;18.30;52.60;;;;;;5070380;28;20187;-64
2022/01/15 09:35:25;;;;;;;4.57;3.42;;;18.30;52.50;;;;;;5053927;28;20175;-65
2022/01/15 09:37:51;;;;;;;4.25;3.85;;;18.20;52.50;;;;;;5055342;28;20693;-64
2022/01/15 09:40:18;;;;;;;5.13;3.55;;;18.20;52.60;;;;;;5055245;28;20195;-64
2022/01/15 09:42:44;;;;;;;3.97;3.22;;;18.10;52.70;;;;;;5054349;28;20634;-64
2022/01/15 09:45:10;;;;;;;4.85;3.80;;;18.00;52.70;;;;;;5055461;28;20190;-64
2022/01/15 09:47:36;;;;;;;4.40;3.97;;;18.00;52.90;;;;;;5054148;28;20537;-64
2022/01/15 09:50:04;;;;;;;4.68;4.25;;;18.00;53.00;;;;;;5058520;28;20689;-64
2022/01/15 09:52:31;;;;;;;5.28;4.13;;;18.10;52.90;;;;;;5074476;28;20677;-64
2022/01/15 09:54:57;;;;;;;4.55;4.15;;;18.10;52.80;;;;;;5070267;28;20248;-64
2022/01/15 09:57:22;;;;;;;4.22;3.45;;;18.10;52.80;;;;;;5052927;28;20195;-64
2022/01/15 09:59:48;;;;;;;4.07;3.67;;;18.10;52.90;;;;;;5054623;28;20658;-65
2022/01/15 10:02:14;;;;;;;5.15;3.97;;;18.10;52.90;;;;;;5054215;28;20185;-65
2022/01/15 10:04:40;;;;;;;4.43;3.83;;;18.10;52.80;;;;;;5053083;28;20179;-65
2022/01/15 10:07:16;;;;;;;4.53;3.72;;;18.20;52.80;;;;;;5054449;28;20266;-66
2022/01/15 10:09:42;;;;;;;7.68;3.83;;;18.10;52.70;;;;;;5053864;28;20179;-65
2022/01/15 10:12:08;;;;;;;7.07;4.32;;;18.10;52.90;;;;;;5054623;28;20605;-64
2022/01/15 10:14:41;;;;;;;4.90;4.00;;;18.20;52.70;;;;;;5054224;28;20637;-68
2022/01/15 10:17:23;;;;;;;6.57;4.32;;;18.10;52.90;;;;;;5054180;28;20198;-64
2022/01/15 10:19:48;;;;;;;4.97;4.10;;;18.10;53.10;;;;;;5054382;28;20570;-65
2022/01/15 10:22:16;;;;;;;4.38;3.17;;;18.10;53.00;;;;;;5054191;28;20225;-66
2022/01/15 10:24:43;;;;;;;5.55;3.60;;;18.10;53.40;;;;;;5062877;28;20179;-66
2022/01/15 10:27:21;;;;;;;4.88;3.80;;;18.10;53.40;;;;;;5073224;28;20236;-64
2022/01/15 10:29:54;;;;;;;5.18;3.72;;;18.10;53.50;;;;;;5063828;28;20178;-67
2022/01/15 10:32:20;;;;;;;6.40;3.13;;;18.10;53.50;;;;;;5051206;28;20225;-67
2022/01/15 10:34:45;;;;;;;4.07;3.55;;;18.10;53.60;;;;;;5053515;28;20172;-67
2022/01/15 10:37:12;;;;;;;6.97;3.85;;;18.10;53.50;;;;;;5052487;28;20174;-66
2022/01/15 10:39:38;;;;;;;5.88;3.83;;;18.10;53.50;;;;;;5053149;28;20229;-66
2022/01/15 10:42:15;;;;;;;3.50;3.20;;;18.10;53.50;;;;;;5053450;28;20181;-67
2022/01/15 10:44:42;;;;;;;5.53;3.28;;;18.10;53.50;;;;;;5050260;28;20197;-66
2022/01/15 10:47:15;;;;;;;5.30;4.05;;;18.00;53.50;;;;;;5053955;28;20256;-66
2022/01/15 10:49:41;;;;;;;3.85;3.47;;;18.00;53.70;;;;;;5053429;28;20234;-66
2022/01/15 10:52:14;;;;;;;3.80;3.50;;;18.10;53.80;;;;;;5053091;28;20278;-66
2022/01/15 10:55:06;;;;;;;3.97;3.45;;;18.00;53.60;;;;;;5053366;28;20583;-66
2022/01/15 10:57:35;;;;;;;3.67;3.38;;;18.00;53.70;;;;;;5053298;28;20648;-67
2022/01/15 11:00:36;;;;;;;4.22;3.83;;;18.00;53.70;;;;;;5053008;28;20171;-67
2022/01/15 11:03:04;;;;;;;4.85;4.28;;;18.00;53.60;;;;;;5049467;28;20194;-67
2022/01/15 11:05:39;;;;;;;5.95;3.30;;;18.00;53.60;;;;;;5051521;28;20175;-67
2022/01/15 11:08:43;;;;;;;4.47;3.88;;;18.00;53.60;;;;;;5053579;28;20629;-66
2022/01/15 11:11:10;;;;;;;3.88;3.47;;;17.90;53.60;;;;;;5031097;28;20278;-65
2022/01/15 11:13:41;;;;;;;3.60;3.30;;;17.90;53.60;;;;;;5030133;28;20215;-66
2022/01/15 11:16:16;;;;;;;3.80;3.50;;;17.90;53.60;;;;;;5042383;28;20175;-66
2022/01/15 11:18:43;;;;;;;4.20;3.80;;;17.90;53.60;;;;;;5052994;28;20200;-66
2022/01/15 11:21:11;;;;;;;4.50;4.00;;;17.80;53.60;;;;;;5052567;28;20250;-66
2022/01/15 11:23:38;;;;;;;6.43;4.10;;;17.90;53.70;;;;;;5053499;28;20171;-65
2022/01/15 11:26:09;;;;;;;4.15;3.42;;;17.80;53.70;;;;;;5072443;28;20203;-67
2022/01/15 11:28:34;;;;;;;3.95;3.58;;;17.80;53.70;;;;;;5072557;28;20228;-68
2022/01/15 11:31:05;;;;;;;4.40;4.00;;;17.80;53.60;;;;;;5073041;28;20517;-65
2022/01/15 11:33:36;;;;;;;4.72;4.10;;;17.80;53.80;;;;;;5071373;28;20246;-67
2022/01/15 11:36:01;;;;;;;6.28;4.00;;;17.80;53.90;;;;;;5071329;28;20216;-65
2022/01/15 11:38:43;;;;;;;8.43;4.10;;;17.70;53.80;;;;;;5072202;28;20177;-66
2022/01/15 11:41:26;;;;;;;5.70;3.75;;;17.80;53.80;;;;;;5071729;28;20699;-66
2022/01/15 11:43:58;;;;;;;5.75;3.90;;;17.80;53.90;;;;;;5072691;28;20594;-66
2022/01/15 11:46:25;;;;;;;9.18;3.88;;;17.80;54.00;;;;;;5072325;28;20182;-66
2022/01/15 11:48:51;;;;;;;5.20;3.80;;;17.80;54.00;;;;;;5071668;28;20268;-68
2022/01/15 11:51:19;;;;;;;5.10;3.88;;;17.90;54.00;;;;;;5072474;28;20210;-67
2022/01/15 11:53:45;;;;;;;4.72;3.85;;;18.00;54.00;;;;;;5072425;28;20206;-69
2022/01/15 11:56:22;;;;;;;7.13;4.25;;;18.00;53.80;;;;;;5071747;28;20204;-66
2022/01/15 11:58:48;;;;;;;7.15;3.83;;;18.20;53.70;;;;;;5071992;28;20177;-68
2022/01/15 12:01:36;;;;;;;3.67;3.35;;;18.30;53.60;;;;;;5071144;28;20174;-68
2022/01/15 12:04:27;;;;;;;7.97;3.42;;;18.40;53.40;;;;;;5061786;28;20233;-68
2022/01/15 12:07:15;;;;;;;3.72;3.42;;;18.50;53.30;;;;;;5051899;28;20222;-68
2022/01/15 12:09:41;;;;;;;4.63;3.40;;;18.60;53.20;;;;;;5050964;28;20258;-68
2022/01/15 12:12:19;;;;;;;6.07;3.47;;;18.60;53.10;;;;;;5051495;28;20234;-67
2022/01/15 12:15:02;;;;;;;5.97;3.75;;;18.70;53.00;;;;;;5052027;28;20236;-68
2022/01/15 12:17:28;;;;;;;4.50;3.65;;;18.70;52.90;;;;;;5050600;28;20576;-68
2022/01/15 12:19:54;;;;;;;5.72;3.25;;;18.80;52.90;;;;;;5051841;28;20198;-67
2022/01/15 12:22:39;;;;;;;5.25;3.70;;;18.80;52.80;;;;;;5050927;28;20192;-63
2022/01/15 12:25:30;;;;;;;4.82;3.45;;;18.80;52.80;;;;;;5064504;28;20481;-68
2022/01/15 12:27:56;;;;;;;7.38;4.22;;;18.90;52.80;;;;;;5071622;28;20194;-68
2022/01/15 12:30:29;;;;;;;4.07;3.38;;;18.90;52.70;;;;;;5070854;28;20181;-68
2022/01/15 12:32:56;;;;;;;6.30;3.78;;;18.80;52.60;;;;;;5071425;28;20221;-68
2022/01/15 12:35:23;;;;;;;4.95;3.42;;;18.90;52.60;;;;;;5071282;28;20514;-68
2022/01/15 12:37:56;;;;;;;6.03;3.83;;;18.90;52.60;;;;;;5071163;28;20590;-68
2022/01/15 12:40:31;;;;;;;4.07;3.67;;;18.90;52.60;;;;;;5071153;28;20549;-68
2022/01/15 12:43:02;;;;;;;4.50;4.10;;;18.90;52.50;;;;;;5071655;28;20222;-67
2022/01/15 12:45:28;;;;;;;4.72;3.60;;;18.90;52.40;;;;;;5070698;28;20174;-68
2022/01/15 12:47:54;;;;;;;4.55;4.00;;;18.90;52.40;;;;;;5071485;28;20170;-67
2022/01/15 12:50:20;;;;;;;4.15;3.75;;;18.90;52.40;;;;;;5071240;28;20712;-68
2022/01/15 12:52:45;;;;;;;5.30;3.83;;;18.80;52.40;;;;;;5070974;28;20294;-68
2022/01/15 12:55:11;;;;;;;4.55;3.92;;;18.70;52.40;;;;;;5070261;28;20659;-68
2022/01/15 12:57:40;;;;;;;4.60;4.20;;;18.70;52.60;;;;;;5070475;28;20166;-69
2022/01/15 13:00:27;;;;;;;4.20;3.80;;;18.60;52.70;;;;;;5071319;28;20568;-68
2022/01/15 13:02:54;;;;;;;5.10;4.30;;;18.60;52.70;;;;;;5070605;28;20194;-69
2022/01/15 13:05:20;;;;;;;4.65;4.25;;;18.60;52.80;;;;;;5050516;28;20175;-68
2022/01/15 13:07:53;;;;;;;4.43;4.03;;;18.60;52.70;;;;;;5051250;28;20182;-67
2022/01/15 13:10:31;;;;;;;4.70;4.03;;;18.60;52.70;;;;;;5051105;28;20723;-66